Battle Creek, MI (49015)

6:48 AM EST on January 29, 2015 (GMT -0500)
APRSWXNET Battle Creek MI US | Change Station
CLOSE
Current Station
Personal Weather Station
Location: Battle Creek, MI
Elevation: 902 ft
Nearby Weather Stations
Active Advisory: Winter Weather Advisory

Elev 902 ft 42.32 °N, 85.11 °W | Updated 28 minutes ago

Scattered Clouds
Scattered Clouds
31 °F
Feels Like 31 °F
N
3
Wind Variable Wind from SE
Gusts 7.0 mph

Today
High -- | Low -- °F
--% Chance of Precip.
Yesterday
High -- | Low -- °F
Precip. -- in
7:57 AM 5:51 PM
Waxing Gibbous, 73% visible
Pressure 29.80 in
Visibility 10.0 miles
Clouds Scattered Clouds 8500 ft
Windchill 31 °F
Dew Point 25 °F
Humidity 77%
Rainfall 0.00 in
Snow Depth Not available.
UV 0 out of 12
Pollen .10 out of 12
Air Quality Not available.
Flu Activity Not available.
METAR KBTL 291053Z 17010KT 10SM SCT085 00/M05 A2976 RMK AO2 UPE01 SLP089 P0000 T00001050

More Conditions Fewer Conditions

Pressure 29.80 in
Visibility 10.0 miles
Clouds Scattered Clouds 8500 ft
Windchill 31 °F
Dew Point 25 °F
Humidity 77%
Rainfall 0.00 in
Snow Depth Not available.
UV 0 out of 12
Pollen .10 out of 12
Air Quality Not available.
Flu Activity Not available.
METAR KBTL 291053Z 17010KT 10SM SCT085 00/M05 A2976 RMK AO2 UPE01 SLP089 P0000 T00001050

More Conditions Fewer Conditions

10-Day Weather Forecast

Almanac

Astronomy

Jan. 29, 2015 Rise Set
Actual Time
Civil Twilight
Nautical Twilight
Astronomical Twilight
Moon
Length of Visible Light
Length of Day
Tomorrow will be .
, % of the Moon is Illuminated

Today's Extremes

State Highs State Lows

Community

WunderPhotos

Upload Photos

1,791,408 photos uploaded!

WunderBlogs® & News

Nearby

Air Quality

  Air Quality AQ Index Pollutant
Not available.

Snow Depth

Station Depth Elevation

Earthquake Activity

City Distance Mag. Time & Date
Minimum magnitude displayed is 2.5.

Coastal Water Temperatures

Place Temperature

Nearby Weather Stations